createdAt,value
2019-03-04T00:00:55.728Z,989.04
2019-03-04T00:01:55.689Z,989.02
2019-03-04T00:02:55.663Z,989.00
2019-03-04T00:03:55.637Z,988.93
2019-03-04T00:04:55.632Z,989.02
2019-03-04T00:05:55.563Z,988.94
2019-03-04T00:06:55.564Z,988.92
2019-03-04T00:07:55.505Z,988.98
2019-03-04T00:08:55.472Z,988.89
2019-03-04T00:09:55.446Z,988.91
2019-03-04T00:10:55.439Z,988.93
2019-03-04T00:11:55.391Z,988.89
2019-03-04T00:12:55.377Z,988.89
2019-03-04T00:13:55.353Z,988.84
2019-03-04T00:14:55.330Z,988.85
2019-03-04T00:15:55.278Z,988.67
2019-03-04T00:16:55.250Z,988.81
2019-03-04T00:17:55.207Z,988.80
2019-03-04T00:18:55.201Z,988.73
2019-03-04T00:19:55.176Z,988.67
2019-03-04T00:20:55.163Z,988.67
2019-03-04T00:21:55.126Z,988.66
2019-03-04T00:22:55.088Z,988.60
2019-03-04T00:23:55.048Z,988.55
2019-03-04T00:24:55.035Z,988.61
2019-03-04T00:25:54.992Z,988.58
2019-03-04T00:26:54.949Z,988.67
2019-03-04T00:27:54.923Z,988.61
2019-03-04T00:28:54.894Z,988.60
2019-03-04T00:29:54.918Z,988.66
2019-03-04T00:30:54.842Z,988.65
2019-03-04T00:31:54.827Z,988.53
2019-03-04T00:32:54.783Z,988.43
2019-03-04T00:33:54.992Z,988.48
2019-03-04T00:34:54.723Z,988.40
2019-03-04T00:35:54.838Z,988.38
2019-03-04T00:36:54.722Z,988.34
2019-03-04T00:37:54.636Z,988.28
2019-03-04T00:38:54.648Z,988.25
2019-03-04T00:39:54.583Z,988.20
2019-03-04T00:40:54.547Z,988.11
2019-03-04T00:41:54.526Z,988.15
2019-03-04T00:42:54.499Z,988.14
2019-03-04T00:43:54.464Z,988.07
2019-03-04T00:44:54.442Z,988.01
2019-03-04T00:45:54.404Z,988.00
2019-03-04T00:46:54.375Z,987.97
2019-03-04T00:47:54.356Z,987.86
2019-03-04T00:48:54.332Z,987.80
2019-03-04T00:49:54.296Z,987.85
2019-03-04T00:50:54.328Z,987.76
2019-03-04T00:51:54.234Z,987.81
2019-03-04T00:52:54.209Z,987.79
2019-03-04T00:53:54.179Z,987.77
2019-03-04T00:54:54.176Z,987.79
2019-03-04T00:55:54.146Z,987.70
2019-03-04T00:56:54.102Z,987.61
2019-03-04T00:57:54.049Z,987.61
2019-03-04T00:58:55.056Z,987.68
2019-03-04T00:59:54.086Z,987.59
2019-03-04T01:00:53.983Z,987.58
2019-03-04T01:01:53.942Z,987.48
2019-03-04T01:02:53.902Z,987.48
2019-03-04T01:03:53.907Z,987.36
2019-03-04T01:04:53.862Z,987.38
2019-03-04T01:05:53.828Z,987.43
2019-03-04T01:06:53.795Z,987.37
2019-03-04T01:07:53.771Z,987.42
2019-03-04T01:08:53.747Z,987.37
2019-03-04T01:09:53.712Z,987.39
2019-03-04T01:10:53.694Z,987.35
2019-03-04T01:11:53.652Z,987.32
2019-03-04T01:12:53.627Z,987.33
2019-03-04T01:13:53.591Z,987.32
2019-03-04T01:14:53.587Z,987.25
2019-03-04T01:15:53.537Z,987.30
2019-03-04T01:16:53.505Z,987.28
2019-03-04T01:17:53.462Z,987.24
2019-03-04T01:18:53.455Z,987.22
2019-03-04T01:19:53.413Z,987.28
2019-03-04T01:20:53.379Z,987.27
2019-03-04T01:21:53.408Z,987.33
2019-03-04T01:22:53.347Z,987.33
2019-03-04T01:23:53.295Z,987.32
2019-03-04T01:24:53.276Z,987.30
2019-03-04T01:25:53.245Z,987.25
2019-03-04T01:26:53.214Z,987.21
2019-03-04T01:27:53.186Z,987.21
2019-03-04T01:28:53.158Z,987.22
2019-03-04T01:29:53.136Z,987.18
2019-03-04T01:30:53.108Z,987.23
2019-03-04T01:31:53.064Z,987.18
2019-03-04T01:32:53.038Z,987.12
2019-03-04T01:33:53.002Z,987.05
2019-03-04T01:34:53.994Z,986.96
2019-03-04T01:35:52.983Z,987.00
2019-03-04T01:36:52.941Z,986.92
2019-03-04T01:37:52.897Z,986.88
2019-03-04T01:38:52.875Z,986.78
2019-03-04T01:39:52.861Z,986.79
2019-03-04T01:40:52.818Z,986.80
2019-03-04T01:41:52.789Z,986.70
2019-03-04T01:42:52.760Z,986.66
2019-03-04T01:43:52.717Z,986.60
2019-03-04T01:44:52.694Z,986.62
2019-03-04T01:45:52.657Z,986.55
2019-03-04T01:46:52.632Z,986.58
2019-03-04T01:47:52.609Z,986.53
2019-03-04T01:48:52.579Z,986.59
2019-03-04T01:49:52.541Z,986.54
2019-03-04T01:50:52.534Z,986.54
2019-03-04T01:51:52.487Z,986.43
2019-03-04T01:52:52.469Z,986.43
2019-03-04T01:53:52.434Z,986.33
2019-03-04T01:54:52.475Z,986.32
2019-03-04T01:55:52.392Z,986.25
2019-03-04T01:56:52.357Z,986.28
2019-03-04T01:57:52.320Z,986.20
2019-03-04T01:58:52.293Z,986.16
2019-03-04T01:59:52.252Z,986.11
2019-03-04T02:00:52.249Z,986.05
2019-03-04T02:01:52.221Z,986.05
2019-03-04T02:02:52.185Z,985.99
2019-03-04T02:03:52.139Z,985.94
2019-03-04T02:04:52.110Z,985.96
2019-03-04T02:05:52.087Z,985.98
2019-03-04T02:06:52.058Z,986.00
2019-03-04T02:07:52.025Z,986.09
2019-03-04T02:08:52.996Z,986.14
2019-03-04T02:09:51.970Z,986.14
2019-03-04T02:10:51.947Z,986.08
2019-03-04T02:11:51.907Z,986.06
2019-03-04T02:12:51.881Z,986.05
2019-03-04T02:13:51.853Z,986.08
2019-03-04T02:14:51.825Z,985.92
2019-03-04T02:15:51.798Z,985.83
2019-03-04T02:16:51.768Z,985.87
2019-03-04T02:17:51.732Z,985.85
2019-03-04T02:18:53.518Z,985.72
2019-03-04T04:05:18.051Z,982.66
2019-03-04T04:06:17.970Z,982.70
2019-03-04T04:32:18.426Z,981.68
2019-03-04T04:32:56.862Z,981.61
2019-03-04T04:33:56.831Z,981.38
2019-03-04T04:47:15.146Z,981.11
2019-03-04T04:48:14.164Z,981.04
2019-03-04T05:12:29.968Z,980.94
2019-03-04T05:13:29.949Z,981.01
2019-03-04T05:14:29.906Z,980.90
2019-03-04T05:15:29.866Z,980.91
2019-03-04T05:16:30.848Z,981.03
2019-03-04T05:17:29.822Z,980.95
2019-03-04T05:18:29.806Z,981.05
2019-03-04T05:19:29.766Z,980.94
2019-03-04T05:20:29.759Z,980.89
2019-03-04T05:21:29.707Z,980.77
2019-03-04T05:22:29.680Z,980.77
2019-03-04T05:23:29.671Z,980.81
2019-03-04T05:24:29.776Z,980.74
2019-03-04T05:25:29.588Z,980.71
2019-03-04T05:26:29.559Z,980.75
2019-03-04T05:27:29.527Z,980.71
2019-03-04T05:28:29.506Z,980.76
2019-03-04T05:29:29.464Z,980.62
2019-03-04T05:30:29.453Z,980.66
2019-03-04T05:31:29.411Z,980.56
2019-03-04T05:32:29.384Z,980.60
2019-03-04T05:33:29.353Z,980.56
2019-03-04T05:34:29.327Z,980.60
2019-03-04T05:35:29.296Z,980.69
2019-03-04T05:36:30.274Z,980.61
2019-03-04T05:37:29.240Z,980.49
2019-03-04T05:38:29.199Z,980.62
2019-03-04T05:39:29.204Z,980.62
2019-03-04T05:40:29.155Z,980.56
2019-03-04T05:41:29.122Z,980.50
2019-03-04T05:42:29.104Z,980.39
2019-03-04T05:43:29.066Z,980.36
2019-03-04T05:44:29.035Z,980.35
2019-03-04T05:45:29.026Z,980.22
2019-03-04T05:46:28.978Z,980.16
2019-03-04T05:47:29.026Z,979.99
2019-03-04T05:48:28.923Z,979.97
2019-03-04T05:49:28.900Z,980.04
2019-03-04T05:50:28.855Z,980.19
2019-03-04T05:51:28.843Z,980.15
2019-03-04T05:52:28.815Z,980.10
2019-03-04T05:53:28.804Z,980.14
2019-03-04T05:54:28.759Z,980.18
2019-03-04T05:55:28.709Z,980.18
2019-03-04T05:56:28.686Z,980.16
2019-03-04T05:57:28.659Z,980.07
2019-03-04T05:58:28.636Z,980.16
2019-03-04T05:59:28.605Z,980.06
2019-03-04T06:00:28.595Z,980.00
2019-03-04T06:01:28.535Z,979.93
2019-03-04T06:02:28.525Z,980.13
2019-03-04T06:03:28.486Z,979.84
2019-03-04T06:04:28.447Z,979.69
2019-03-04T06:05:28.432Z,979.60
2019-03-04T06:06:28.400Z,979.74
2019-03-04T06:07:28.373Z,979.74
2019-03-04T06:08:28.371Z,979.73
2019-03-04T06:09:28.314Z,979.66
2019-03-04T06:10:28.282Z,979.74
2019-03-04T06:11:28.263Z,979.51
2019-03-04T06:12:28.252Z,979.59
2019-03-04T06:13:28.196Z,979.56
2019-03-04T06:14:28.179Z,979.52
2019-03-04T06:15:28.140Z,979.57
2019-03-04T06:16:28.124Z,979.53
2019-03-04T06:17:28.081Z,979.63
2019-03-04T06:18:28.064Z,979.76
2019-03-04T06:19:28.018Z,979.84
2019-03-04T06:20:29.003Z,980.12
2019-03-04T06:21:27.964Z,979.82
2019-03-04T06:22:34.770Z,980.23
2019-03-04T06:23:27.909Z,980.20
2019-03-04T06:24:29.907Z,980.24
2019-03-04T06:25:27.852Z,980.19
2019-03-04T06:26:35.797Z,980.19
2019-03-04T06:27:27.816Z,980.30
2019-03-04T06:28:27.773Z,980.27
2019-03-04T06:29:27.731Z,979.93
2019-03-04T06:30:29.740Z,979.90
2019-03-04T06:31:27.696Z,979.98
2019-03-04T06:32:29.660Z,980.04
2019-03-04T06:33:27.618Z,979.90
2019-03-04T06:34:27.613Z,979.91
2019-03-04T06:35:27.606Z,980.03
2019-03-04T06:36:35.301Z,979.98
2019-03-04T06:37:27.497Z,980.29
2019-03-04T06:38:42.303Z,980.38
2019-03-04T06:39:27.447Z,980.35
2019-03-04T06:40:51.441Z,980.60
2019-03-04T06:41:27.413Z,980.60
2019-03-04T06:42:27.370Z,980.54
2019-03-04T06:43:35.288Z,980.62
2019-03-04T06:44:27.309Z,980.78
2019-03-04T06:45:29.309Z,980.79
2019-03-04T06:46:27.256Z,980.76
2019-03-04T06:47:27.236Z,981.10
2019-03-04T06:48:27.193Z,980.65
2019-03-04T06:49:29.203Z,980.80
2019-03-04T06:50:27.190Z,980.84
2019-03-04T06:51:34.849Z,981.17
2019-03-04T06:52:27.079Z,980.84
2019-03-04T06:53:27.074Z,980.96
2019-03-04T06:54:27.040Z,980.93
2019-03-04T06:55:33.785Z,981.08
2019-03-04T06:56:26.960Z,981.09
2019-03-04T06:57:28.350Z,981.03
2019-03-04T06:58:26.904Z,980.99
2019-03-04T06:59:27.895Z,980.95
2019-03-04T07:00:26.857Z,980.87
2019-03-04T07:01:26.912Z,980.78
2019-03-04T07:02:26.778Z,980.87
2019-03-04T07:03:26.846Z,980.97
2019-03-04T07:04:26.752Z,981.11
2019-03-04T07:05:26.715Z,981.00
2019-03-04T07:06:26.671Z,981.09
2019-03-04T07:07:26.697Z,981.00
2019-03-04T07:08:26.636Z,980.97
2019-03-04T07:09:26.581Z,980.94
2019-03-04T07:10:26.560Z,980.91
2019-03-04T07:11:26.539Z,980.52
2019-03-04T07:12:26.492Z,980.41
2019-03-04T07:13:26.479Z,980.54
2019-03-04T07:14:26.442Z,980.50
2019-03-04T07:15:26.435Z,980.51
2019-03-04T07:16:27.472Z,980.51
2019-03-04T07:17:26.374Z,980.58
2019-03-04T07:18:26.497Z,980.42
2019-03-04T07:19:26.319Z,980.40
2019-03-04T07:20:26.286Z,980.45
2019-03-04T07:21:26.236Z,980.37
2019-03-04T07:22:26.221Z,980.52
2019-03-04T07:23:26.195Z,980.52
2019-03-04T07:24:26.172Z,980.41
2019-03-04T07:25:26.132Z,980.42
2019-03-04T07:26:26.136Z,980.51
2019-03-04T07:27:26.074Z,980.68
2019-03-04T07:28:26.116Z,980.65
2019-03-04T07:29:26.062Z,980.62
2019-03-04T07:30:25.973Z,980.62
2019-03-04T07:31:25.948Z,980.56
2019-03-04T07:32:26.052Z,980.61
2019-03-04T07:33:25.886Z,980.62
2019-03-04T07:34:25.865Z,980.60
2019-03-04T07:35:34.826Z,980.54
2019-03-04T07:36:25.794Z,980.55
2019-03-04T07:37:32.371Z,980.65
2019-03-04T07:38:25.757Z,980.53
2019-03-04T07:39:25.755Z,980.64
2019-03-04T07:40:25.689Z,980.62
2019-03-04T07:41:27.727Z,980.63
2019-03-04T07:42:25.641Z,980.69
2019-03-04T07:43:51.360Z,980.72
2019-03-04T07:44:25.597Z,980.88
2019-03-04T07:45:25.553Z,980.84
2019-03-04T07:46:25.587Z,980.80
2019-03-04T07:47:25.526Z,980.84
2019-03-04T07:48:25.497Z,981.05
2019-03-04T07:49:25.459Z,981.03
2019-03-04T07:50:25.505Z,980.90
2019-03-04T07:51:25.386Z,980.88
2019-03-04T07:52:25.416Z,980.98
2019-03-04T07:53:25.317Z,981.01
2019-03-04T07:54:27.377Z,981.03
2019-03-04T07:55:25.269Z,980.97
2019-03-04T07:56:25.227Z,981.07
2019-03-04T07:57:25.238Z,980.89
2019-03-04T07:58:25.895Z,981.05
2019-03-04T07:59:25.256Z,980.97
2019-03-04T08:00:25.143Z,980.94
2019-03-04T08:01:25.093Z,980.90
2019-03-04T08:02:25.048Z,980.88
2019-03-04T08:03:25.029Z,980.92
2019-03-04T08:04:25.021Z,980.83
2019-03-04T08:05:24.973Z,981.03
2019-03-04T08:06:25.018Z,980.96
2019-03-04T08:07:24.965Z,980.95
2019-03-04T08:08:24.914Z,980.90
2019-03-04T08:09:24.855Z,980.79
2019-03-04T08:10:31.917Z,980.86
2019-03-04T08:11:24.786Z,980.83
2019-03-04T08:12:25.856Z,980.76
2019-03-04T08:13:24.804Z,980.82
2019-03-04T08:14:24.736Z,980.74
2019-03-04T08:15:24.695Z,980.86
2019-03-04T08:16:24.676Z,980.84
2019-03-04T08:17:24.625Z,980.91
2019-03-04T08:18:25.607Z,980.95
2019-03-04T08:19:24.645Z,980.84
2019-03-04T08:20:24.559Z,981.10
2019-03-04T08:21:24.543Z,981.11
2019-03-04T08:22:32.314Z,981.21
2019-03-04T08:23:24.470Z,981.15
2019-03-04T08:24:24.445Z,981.50
2019-03-04T08:25:24.387Z,981.17
2019-03-04T08:26:24.365Z,981.23
2019-03-04T08:27:24.355Z,981.10
2019-03-04T08:28:25.390Z,981.18
2019-03-04T08:29:24.426Z,981.06
2019-03-04T08:30:24.394Z,981.31
2019-03-04T08:31:24.236Z,981.35
2019-03-04T08:32:24.846Z,981.19
2019-03-04T08:33:24.187Z,981.26
2019-03-04T08:34:31.130Z,981.22
2019-03-04T08:35:24.105Z,981.31
2019-03-04T08:36:24.077Z,981.29
2019-03-04T08:37:24.070Z,981.22
2019-03-04T08:38:24.031Z,981.20
2019-03-04T08:39:24.084Z,981.18
2019-03-04T08:40:23.976Z,981.28
2019-03-04T08:41:23.996Z,981.24
2019-03-04T08:42:23.912Z,981.17
2019-03-04T08:43:23.914Z,981.15
2019-03-04T08:44:23.848Z,981.13
2019-03-04T08:45:23.952Z,981.15
2019-03-04T08:46:23.788Z,981.13
2019-03-04T08:47:23.841Z,981.28
2019-03-04T08:48:23.735Z,981.16
2019-03-04T08:49:23.737Z,981.20
2019-03-04T08:50:23.684Z,981.26
2019-03-04T08:51:23.674Z,981.25
2019-03-04T08:52:23.642Z,981.35
2019-03-04T08:53:23.587Z,981.22
2019-03-04T08:54:23.566Z,981.27
2019-03-04T08:55:23.523Z,981.15
2019-03-04T08:56:23.514Z,981.13
2019-03-04T08:57:23.474Z,981.27
2019-03-04T08:58:23.463Z,981.13
2019-03-04T08:59:23.426Z,981.20
2019-03-04T09:00:23.554Z,981.17
2019-03-04T09:01:23.435Z,981.14
2019-03-04T09:02:23.325Z,981.00
2019-03-04T09:03:23.336Z,981.07
2019-03-04T09:04:23.289Z,981.24
2019-03-04T09:05:23.256Z,981.15
2019-03-04T09:06:23.222Z,981.06
2019-03-04T09:07:23.179Z,981.06
2019-03-04T09:08:23.257Z,981.18
2019-03-04T09:09:23.162Z,981.16
2019-03-04T09:10:23.181Z,981.00
2019-03-04T09:11:23.075Z,981.13
2019-03-04T09:12:23.088Z,981.18
2019-03-04T09:13:23.010Z,981.23
2019-03-04T09:14:23.029Z,981.14
2019-03-04T09:15:22.962Z,981.07
2019-03-04T09:16:22.938Z,981.01
2019-03-04T09:17:22.905Z,981.00
2019-03-04T09:18:22.881Z,981.09
2019-03-04T09:19:22.847Z,981.18
2019-03-04T09:20:22.870Z,980.97
2019-03-04T09:21:22.844Z,981.07
2019-03-04T09:22:22.756Z,981.05
2019-03-04T09:23:22.721Z,981.07
2019-03-04T09:24:22.749Z,981.00
2019-03-04T09:25:30.094Z,980.97
2019-03-04T09:26:22.667Z,981.08
2019-03-04T09:27:22.603Z,981.05
2019-03-04T09:28:22.643Z,980.92
2019-03-04T09:29:23.782Z,980.98
2019-03-04T09:30:22.692Z,980.93
2019-03-04T09:31:22.640Z,980.92
2019-03-04T09:32:22.547Z,980.94
2019-03-04T09:33:22.512Z,980.60
2019-03-04T09:34:22.454Z,980.95
2019-03-04T09:35:22.695Z,980.95
2019-03-04T09:36:22.681Z,981.05
2019-03-04T09:37:22.462Z,980.93
2019-03-04T09:38:22.395Z,980.88
2019-03-04T09:39:22.272Z,980.90
2019-03-04T09:40:22.259Z,980.96
2019-03-04T09:41:22.239Z,980.96
2019-03-04T09:42:22.194Z,981.00
2019-03-04T09:43:22.162Z,980.99
2019-03-04T09:44:22.150Z,980.91
2019-03-04T09:45:22.088Z,981.00
2019-03-04T09:46:22.093Z,980.93
2019-03-04T09:47:22.037Z,980.72
2019-03-04T09:48:22.095Z,980.86
2019-03-04T09:49:22.075Z,980.88
2019-03-04T09:50:22.038Z,980.88
2019-03-04T09:51:24.627Z,980.94
2019-03-04T09:52:21.928Z,980.89
2019-03-04T09:53:21.868Z,980.87
2019-03-04T09:54:21.957Z,981.21
2019-03-04T09:55:21.846Z,981.03
2019-03-04T09:56:21.855Z,981.08
2019-03-04T09:57:21.769Z,981.19
2019-03-04T09:58:21.761Z,980.98
2019-03-04T09:59:21.720Z,981.08
2019-03-04T10:00:21.804Z,981.09
2019-03-04T10:01:21.641Z,981.20
2019-03-04T10:02:22.738Z,981.06
2019-03-04T10:03:21.599Z,981.27
2019-03-04T10:04:21.627Z,981.38
2019-03-04T10:05:21.783Z,981.48
2019-03-04T10:06:21.518Z,981.38
2019-03-04T10:07:21.463Z,981.52
2019-03-04T10:08:32.387Z,981.47
2019-03-04T10:09:21.448Z,981.47
2019-03-04T10:10:21.439Z,981.43
2019-03-04T10:11:21.348Z,981.53
2019-03-04T10:12:21.366Z,981.56
2019-03-04T10:13:21.289Z,981.57
2019-03-04T10:14:21.368Z,981.55
2019-03-04T10:15:21.277Z,981.53
2019-03-04T10:16:22.306Z,981.60
2019-03-04T10:17:21.207Z,981.61
2019-03-04T10:18:21.185Z,981.44
2019-03-04T10:19:21.129Z,981.47
2019-03-04T10:20:22.130Z,981.56
2019-03-04T10:21:21.055Z,981.44
2019-03-04T10:22:21.053Z,981.48
2019-03-04T10:23:21.011Z,981.52
2019-03-04T10:24:21.005Z,981.41
2019-03-04T10:25:20.987Z,981.45
2019-03-04T10:26:22.871Z,981.43
2019-03-04T10:27:20.888Z,981.47
2019-03-04T10:28:20.887Z,981.37
2019-03-04T10:29:20.839Z,981.46
2019-03-04T10:30:20.810Z,981.53
2019-03-04T10:31:20.773Z,981.43
2019-03-04T10:32:20.762Z,981.51
2019-03-04T10:33:20.698Z,981.40
2019-03-04T10:34:20.705Z,981.58
2019-03-04T10:35:20.658Z,981.49
2019-03-04T10:36:20.707Z,981.42
2019-03-04T10:37:20.605Z,981.55
2019-03-04T10:38:22.920Z,981.47
2019-03-04T10:39:22.536Z,981.40
2019-03-04T10:40:20.660Z,981.39
2019-03-04T10:41:20.484Z,981.27
2019-03-04T10:42:20.529Z,981.35
2019-03-04T10:43:20.487Z,981.37
2019-03-04T10:44:20.500Z,981.39
2019-03-04T10:45:20.370Z,981.46
2019-03-04T10:46:20.416Z,981.39
2019-03-04T10:47:20.314Z,981.32
2019-03-04T10:48:21.376Z,981.37
2019-03-04T10:49:20.249Z,981.09
2019-03-04T10:50:20.333Z,981.29
2019-03-04T10:51:20.198Z,981.18
2019-03-04T10:52:21.314Z,981.35
2019-03-04T10:53:20.132Z,981.27
2019-03-04T10:54:20.192Z,981.14
2019-03-04T10:55:20.126Z,981.21
2019-03-04T10:56:20.065Z,981.15
2019-03-04T10:57:20.025Z,981.25
2019-03-04T10:58:20.060Z,981.31
2019-03-04T10:59:19.968Z,981.20
2019-03-04T11:00:19.971Z,981.40
2019-03-04T11:01:29.926Z,981.30
2019-03-04T11:02:19.900Z,981.38
2019-03-04T11:03:19.905Z,981.23
2019-03-04T11:04:19.811Z,981.40
2019-03-04T11:05:19.914Z,981.57
2019-03-04T11:06:19.768Z,981.47
2019-03-04T11:07:19.724Z,981.57
2019-03-04T11:08:19.697Z,981.53
2019-03-04T11:09:19.733Z,981.64
2019-03-04T11:10:19.643Z,981.62
2019-03-04T11:11:29.280Z,981.68
2019-03-04T11:12:19.596Z,981.82
2019-03-04T11:13:20.716Z,981.86
2019-03-04T11:14:19.534Z,981.91
2019-03-04T11:15:19.613Z,981.95
2019-03-04T11:16:19.514Z,982.09
2019-03-04T11:17:19.512Z,982.24
2019-03-04T11:18:19.438Z,982.28
2019-03-04T11:19:20.461Z,982.19
2019-03-04T11:20:19.358Z,982.20
2019-03-04T11:21:19.446Z,982.32
2019-03-04T11:22:19.381Z,982.35
2019-03-04T11:23:19.389Z,982.43
2019-03-04T11:24:19.261Z,982.45
2019-03-04T11:25:20.300Z,982.58
2019-03-04T11:26:19.197Z,982.53
2019-03-04T11:27:27.036Z,982.55
2019-03-04T11:28:19.149Z,982.44
2019-03-04T11:29:19.199Z,982.53
2019-03-04T11:30:19.752Z,982.61
2019-03-04T11:31:19.140Z,982.52
2019-03-04T11:32:19.011Z,982.62
2019-03-04T11:33:20.072Z,982.54
2019-03-04T11:34:18.986Z,982.65
2019-03-04T11:35:19.060Z,982.59
2019-03-04T11:36:18.928Z,982.60
2019-03-04T11:37:18.934Z,982.59
2019-03-04T11:38:18.852Z,982.64
2019-03-04T11:39:18.853Z,982.60
2019-03-04T11:40:18.828Z,982.65
2019-03-04T11:41:18.813Z,982.61
2019-03-04T11:42:18.751Z,982.54
2019-03-04T11:43:18.749Z,982.59
2019-03-04T11:44:18.698Z,982.59
2019-03-04T11:45:18.745Z,982.57
2019-03-04T11:46:18.630Z,982.65
2019-03-04T11:47:18.592Z,982.61
2019-03-04T11:48:18.585Z,982.72
2019-03-04T11:49:18.649Z,982.58
2019-03-04T11:50:18.513Z,982.65
2019-03-04T11:51:18.604Z,982.58
2019-03-04T11:52:18.455Z,982.54
2019-03-04T11:53:18.446Z,982.61
2019-03-04T11:54:18.406Z,982.62
2019-03-04T11:55:18.363Z,982.67
2019-03-04T11:56:18.355Z,982.64
2019-03-04T11:57:18.394Z,982.79
2019-03-04T11:58:18.364Z,982.74
2019-03-04T11:59:18.262Z,982.80
2019-03-04T12:00:18.228Z,982.84
2019-03-04T12:01:18.192Z,982.83
2019-03-04T12:02:18.159Z,982.86
2019-03-04T12:03:18.202Z,982.91
2019-03-04T12:04:18.112Z,982.93
2019-03-04T12:05:18.064Z,982.96
2019-03-04T12:06:18.049Z,982.93
2019-03-04T12:07:18.008Z,982.96
2019-03-04T12:08:18.025Z,983.00
2019-03-04T12:09:17.954Z,983.00
2019-03-04T12:10:18.043Z,982.99
2019-03-04T12:11:17.919Z,983.04
2019-03-04T12:12:18.986Z,982.97
2019-03-04T12:13:17.831Z,983.02
2019-03-04T12:14:17.857Z,982.94
2019-03-04T12:15:17.795Z,983.01
2019-03-04T12:16:17.769Z,983.03
2019-03-04T12:17:17.730Z,983.01
2019-03-04T12:18:25.392Z,983.09
2019-03-04T12:19:17.681Z,983.09
2019-03-04T12:20:17.644Z,983.24
2019-03-04T12:21:17.615Z,983.20
2019-03-04T12:22:17.593Z,983.15
2019-03-04T12:23:17.560Z,983.17
2019-03-04T12:24:17.533Z,983.19
2019-03-04T12:25:17.510Z,983.40
2019-03-04T12:26:18.779Z,983.35
2019-03-04T12:27:17.448Z,983.35
2019-03-04T12:28:17.425Z,983.40
2019-03-04T12:29:17.400Z,983.41
2019-03-04T12:30:17.356Z,983.51
2019-03-04T12:31:17.337Z,983.46
2019-03-04T12:32:17.307Z,983.46
2019-03-04T12:33:17.290Z,983.52
2019-03-04T12:34:24.440Z,983.53
2019-03-04T12:35:17.231Z,983.58
2019-03-04T12:36:17.185Z,983.55
2019-03-04T12:37:17.167Z,983.58
2019-03-04T12:38:23.897Z,983.61
2019-03-04T12:39:17.088Z,983.58
2019-03-04T12:40:17.076Z,983.62
2019-03-04T12:41:17.055Z,983.68
2019-03-04T12:42:25.897Z,983.67
2019-03-04T12:43:16.994Z,983.68
2019-03-04T12:44:16.965Z,983.69
2019-03-04T12:45:16.926Z,983.65
2019-03-04T12:46:16.931Z,983.66
2019-03-04T12:47:16.866Z,983.71
2019-03-04T12:48:16.861Z,983.73
2019-03-04T12:49:16.822Z,983.76
2019-03-04T12:50:18.803Z,983.68
2019-03-04T12:51:23.083Z,983.78
2019-03-04T12:52:16.740Z,983.82
2019-03-04T12:53:16.716Z,983.75
2019-03-04T12:54:16.697Z,983.81
2019-03-04T12:55:16.647Z,983.83
2019-03-04T12:56:16.608Z,983.87
2019-03-04T12:57:16.574Z,983.97
2019-03-04T12:58:16.563Z,984.02
2019-03-04T12:59:16.542Z,984.01
2019-03-04T13:00:17.509Z,984.00
2019-03-04T13:01:16.462Z,984.05
2019-03-04T13:02:16.449Z,984.07
2019-03-04T13:03:16.418Z,984.12
2019-03-04T13:04:16.400Z,984.17
2019-03-04T13:05:16.361Z,984.19
2019-03-04T13:06:16.350Z,984.17
2019-03-04T13:07:16.307Z,984.25
2019-03-04T13:08:16.292Z,984.20
2019-03-04T13:09:16.234Z,984.21
2019-03-04T13:10:16.214Z,984.17
2019-03-04T13:11:16.183Z,984.18
2019-03-04T13:12:16.237Z,984.25
2019-03-04T13:13:16.175Z,984.23
2019-03-04T13:14:16.116Z,984.30
2019-03-04T13:15:16.090Z,984.27
2019-03-04T13:16:16.119Z,984.32
2019-03-04T13:17:16.013Z,984.31
2019-03-04T13:18:15.988Z,984.25
2019-03-04T13:19:22.961Z,984.28
2019-03-04T13:20:15.926Z,984.32
2019-03-04T13:21:16.037Z,984.29
2019-03-04T13:22:15.856Z,984.37
2019-03-04T13:23:15.994Z,984.37
2019-03-04T13:24:15.820Z,984.32
2019-03-04T13:25:15.825Z,984.30
2019-03-04T13:26:15.740Z,984.32
2019-03-04T13:27:23.505Z,984.34
2019-03-04T13:28:15.702Z,984.35
2019-03-04T13:29:15.740Z,984.45
2019-03-04T13:30:15.630Z,984.40
2019-03-04T13:31:15.618Z,984.51
2019-03-04T13:32:15.652Z,984.53
2019-03-04T13:33:15.558Z,984.40
2019-03-04T13:34:15.543Z,984.55
2019-03-04T13:35:24.108Z,984.55
2019-03-04T13:36:15.466Z,984.56
2019-03-04T13:37:15.432Z,984.66
2019-03-04T13:38:15.436Z,984.59
2019-03-04T13:39:15.370Z,984.62
2019-03-04T13:40:15.361Z,984.75
2019-03-04T13:41:15.331Z,984.54
2019-03-04T13:42:15.313Z,984.65
2019-03-04T13:43:15.281Z,984.60
2019-03-04T13:44:15.250Z,984.62
2019-03-04T13:45:15.235Z,984.64
2019-03-04T13:46:15.181Z,984.64
2019-03-04T13:47:15.155Z,984.77
2019-03-04T13:48:15.170Z,984.72
2019-03-04T13:49:15.103Z,984.71
2019-03-04T13:50:15.146Z,984.78
2019-03-04T13:51:15.057Z,984.68
2019-03-04T13:52:15.009Z,984.84
2019-03-04T13:53:14.987Z,984.81
2019-03-04T13:54:14.952Z,984.88
2019-03-04T13:55:14.934Z,984.89
2019-03-04T13:56:14.904Z,984.96
2019-03-04T13:57:14.912Z,984.98
2019-03-04T13:58:14.864Z,985.04
2019-03-04T13:59:14.878Z,984.92
2019-03-04T14:00:14.852Z,985.04
2019-03-04T14:01:14.790Z,985.06
2019-03-04T14:02:14.749Z,985.07
2019-03-04T14:03:14.721Z,985.14
2019-03-04T14:04:14.690Z,985.14
2019-03-04T14:05:14.649Z,985.06
2019-03-04T14:06:14.611Z,985.17
2019-03-04T14:07:14.580Z,985.21
2019-03-04T14:08:14.648Z,985.34
2019-03-04T14:09:14.538Z,985.31
2019-03-04T14:10:14.510Z,985.33
2019-03-04T14:11:14.605Z,985.32
2019-03-04T14:12:14.475Z,985.35
2019-03-04T14:13:14.437Z,985.39
2019-03-04T14:14:14.411Z,985.33
2019-03-04T14:15:14.362Z,985.41
2019-03-04T14:16:14.396Z,985.43
2019-03-04T14:17:14.299Z,985.52
2019-03-04T14:18:14.835Z,985.47
2019-03-04T14:19:14.248Z,985.56
2019-03-04T14:20:14.318Z,985.57
2019-03-04T14:21:14.189Z,985.65
2019-03-04T14:22:14.239Z,985.56
2019-03-04T14:23:14.133Z,985.68
2019-03-04T14:24:14.144Z,985.67
2019-03-04T14:25:14.074Z,985.67
2019-03-04T14:26:14.161Z,985.76
2019-03-04T14:27:14.022Z,985.91
2019-03-04T14:28:14.095Z,985.75
2019-03-04T14:29:13.967Z,985.83
2019-03-04T14:30:13.974Z,985.86
2019-03-04T14:31:13.928Z,985.84
2019-03-04T14:32:14.002Z,985.81
2019-03-04T14:33:13.867Z,985.87
2019-03-04T14:34:13.896Z,985.88
2019-03-04T14:35:13.794Z,985.88
2019-03-04T14:36:13.831Z,985.91
2019-03-04T14:37:13.732Z,985.97
2019-03-04T14:38:13.830Z,985.98
2019-03-04T14:39:13.682Z,985.98
2019-03-04T14:40:13.789Z,986.10
2019-03-04T14:41:13.631Z,986.05
2019-03-04T14:42:13.601Z,986.06
2019-03-04T14:43:13.582Z,986.09
2019-03-04T14:44:13.571Z,986.06
2019-03-04T14:45:13.515Z,986.14
2019-03-04T14:46:13.567Z,986.10
2019-03-04T14:47:13.445Z,986.22
2019-03-04T14:48:13.560Z,986.13
2019-03-04T14:49:13.388Z,986.21
2019-03-04T14:50:14.415Z,986.09
2019-03-04T14:51:13.333Z,986.24
2019-03-04T14:52:13.480Z,986.13
2019-03-04T14:53:13.290Z,986.16
2019-03-04T14:54:13.332Z,986.14
2019-03-04T14:55:13.229Z,986.27
2019-03-04T14:56:22.089Z,986.22
2019-03-04T14:57:13.176Z,986.19
2019-03-04T14:58:13.266Z,986.24
2019-03-04T14:59:14.879Z,986.30
2019-03-04T15:00:13.207Z,986.33
2019-03-04T15:01:13.051Z,986.36
2019-03-04T15:02:13.062Z,986.35
2019-03-04T15:03:21.042Z,986.46
2019-03-04T15:04:13.077Z,986.44
2019-03-04T15:05:12.957Z,986.47
2019-03-04T15:06:12.935Z,986.37
2019-03-04T15:07:12.920Z,986.48
2019-03-04T15:08:12.852Z,986.47
2019-03-04T15:09:12.835Z,986.44
2019-03-04T15:10:12.818Z,986.51
2019-03-04T15:11:12.771Z,986.66
2019-03-04T15:12:12.797Z,986.54
2019-03-04T15:13:12.739Z,986.57
2019-03-04T15:14:12.699Z,986.64